Terminal Aerodrome Forecast
Issued by NWS

Home | Current Version | Previous Version | Graphics & Text | Print | Product List | Glossary On
Versions: 1 2 3 4 5 6 7 8 9 10 11 12 13 14 15 16
000
FTUS43 KICT 260539
TAFRSL
TAF
KRSL 260539Z 2606/2706 32012G20KT P6SM BKN250
     FM260800 34015G25KT P6SM SCT008 OVC012
     FM261800 03015G22KT P6SM BKN025 OVC040
     FM270000 33012KT P6SM VCSH OVC015=

USA.gov is the U.S. government's official web portal to all federal, state and local government web resources and services.